map of KLYV home
KLYV - Airport
Location
City:  Luverne, Minnesota, United States
Name:Quentin Aanenson Field
ICAO:KLYV
FAA LID:LYV

Details
Type:Airport (Airfield)
Use:Public/Civil
Latitude:4337'00"N (43.616769)
Longitude:9613'04"W (-96.217735)
Datum:WGS 1984
Elevation:1435 ft (437 m)
Variation:2.61E (WMM2015v2 magnetic declination)
-0.07 annual change
Runways:1
Longest:4200 × 75 ft (1280 × 23 m), paved

Time
Time Zone:UTC-6 (DST-5)
Local Time:

Weather
METAR:KLYV 041416Z AUTO 31020G26KT 10SM CLR M19/M23 A2996 RMK AO2

Related Locations
Nearby:
Farthest:YAUG: 10647 mi / 17134 km
Augusta [Augusta Airport], WA, AU

Find:

   beyond  
but within

Other Information
Maps:
NOTAMs:
Links:
Sources:

  
  • flag of United States
  • flag of Minnesota
  

Sectional Chart

Flight Planning
at skyvector.com

Satellite Image

Google Maps Satellite view

 

Copyright © 2004-2019 Karl L. Swartz. All rights reserved.
The Great Circle Mapper name and logo are trademarks of the Great Circle Mapper.
All other trademarks mentioned herein belong to their respective owners.
Please see credits for attibutions and further copyright information.

  Follow gcmap on Facebook Follow gcmap on Twitter GCmap on LinkedIn

hCard Microformat

Geo Microformat